Port Hadlock, WA (98339)

5:22 PM PDT on July 06, 2015 (GMT -0700)
Port Hadlock Marina | | Change Station
CLOSE
Current Station
Personal Weather Station
Location: Port Hadlock-Irondale, WA
Elevation: 26 ft
Nearby Weather Stations

Elev 26 ft 48.03 °N, 122.75 °W | Updated 5 seconds ago

Partly Cloudy
Partly Cloudy
65.5 °F
Feels Like 65.5 °F
N
5.6
Wind Variable Wind from NNW
Gusts 9.0 mph

Today
High -- | Low -- °F
--% Chance of Precip.
Yesterday
High -- | Low -- °F
Precip. -- in
5:18 AM 9:12 PM
Waning Gibbous, 71% visible
Pressure 30.03 in
Visibility 9.0 miles
Clouds Few 5000 ft
Scattered Clouds 20000 ft
Mostly Cloudy 25000 ft
Dew Point 56 °F
Humidity 73%
Rainfall 0.00 in
Snow Depth Not available.
UV 3 out of 12
Pollen 6.00 out of 12
Air Quality Not available.
Flu Activity Not available.
METAR KNUW 062356Z 23009KT 9SM FEW050 SCT200 BKN250 19/13 A3003 RMK AO2 SLP168 T01890128 10194 20167 58008 VISNO $

More Conditions Fewer Conditions

Pressure 30.03 in
Visibility 9.0 miles
Clouds Few 5000 ft
Scattered Clouds 20000 ft
Mostly Cloudy 25000 ft
Dew Point 56 °F
Humidity 73%
Rainfall 0.00 in
Snow Depth Not available.
UV 3 out of 12
Pollen 6.00 out of 12
Air Quality Not available.
Flu Activity Not available.
METAR KNUW 062356Z 23009KT 9SM FEW050 SCT200 BKN250 19/13 A3003 RMK AO2 SLP168 T01890128 10194 20167 58008 VISNO $

More Conditions Fewer Conditions

10-Day Weather Forecast

×

Almanac

Astronomy

Jul. 06, 2015 Rise Set
Actual Time
Civil Twilight
Nautical Twilight
Astronomical Twilight
Moon
Length of Visible Light
Length of Day
Tomorrow will be .
, % of the Moon is Illuminated

Today's Extremes

State Highs State Lows

Community

WunderPhotos

Upload Photos

1,835,695 photos uploaded!

WunderBlogs® & News

Nearby

Air Quality

  Air Quality AQ Index Pollutant
Not available.

Snow Depth

Station Depth Elevation

Earthquake Activity

City Distance Mag. Time & Date
Minimum magnitude displayed is 2.5.

Coastal Water Temperatures

Place Temperature

Stations

Nearby Weather Stations

Station Location Temp. Windchill Dew Point Humidity Wind Precip. Elev Updated Type